Time;durP1;ratioP1;P1;durP2;ratioP2;P2;SDS_P1;SDS_P2;PMS_P1;PMS_P2;Temp;Humidity;BMP_temperature;BMP_pressure;BME280_temperature;BME280_humidity;BME280_pressure;Samples;Min_cycle;Max_cycle;Signal;HPM_P1;HPM_P2
2023/09/01 00:02:24;;;;;;;10.90;6.50;;;;;;;27.81;51.26;100068.31;107846;1286;21990;-59
2023/09/01 00:04:49;;;;;;;11.40;6.90;;;;;;;27.78;51.52;100065.89;107808;1289;22004;-59
2023/09/01 00:07:15;;;;;;;9.30;6.30;;;;;;;27.78;51.43;100063.88;107837;1289;21985;-60
2023/09/01 00:09:41;;;;;;;10.20;6.50;;;;;;;27.79;51.25;100064.13;107690;1289;23738;-59
2023/09/01 00:12:06;;;;;;;9.60;6.20;;;;;;;27.80;51.43;100061.20;107800;1279;21992;-59
2023/09/01 00:14:32;;;;;;;9.60;5.90;;;;;;;27.79;51.13;100063.11;108019;1288;21992;-61
2023/09/01 00:16:57;;;;;;;8.20;5.40;;;;;;;27.78;51.34;100064.28;107993;1283;23735;-59
2023/09/01 00:19:23;;;;;;;9.20;6.30;;;;;;;27.76;51.41;100070.54;108002;1288;21992;-68
2023/09/01 00:21:50;;;;;;;8.70;6.30;;;;;;;27.73;51.18;100072.91;107842;1289;21996;-59
2023/09/01 00:24:16;;;;;;;8.60;6.10;;;;;;;27.73;51.36;100068.48;107906;1289;21992;-68
2023/09/01 00:26:41;;;;;;;8.30;6.00;;;;;;;27.69;51.49;100068.06;107840;1287;23678;-59
2023/09/01 00:29:07;;;;;;;6.80;5.70;;;;;;;27.65;51.57;100072.91;107903;1289;21992;-68
2023/09/01 00:31:33;;;;;;;9.90;5.90;;;;;;;27.61;51.61;100077.80;107797;1283;21986;-59
2023/09/01 00:33:59;;;;;;;7.70;5.80;;;;;;;27.60;51.41;100081.33;108039;1283;21987;-67
2023/09/01 00:36:24;;;;;;;10.30;6.40;;;;;;;27.60;51.56;100081.33;108032;1286;21989;-69
2023/09/01 00:38:50;;;;;;;9.30;5.90;;;;;;;27.60;51.59;100083.87;108103;1288;21993;-59
2023/09/01 00:41:16;;;;;;;8.80;5.70;;;;;;;27.57;51.68;100083.00;107962;1289;22007;-67
2023/09/01 00:43:41;;;;;;;9.20;6.60;;;;;;;27.56;51.80;100087.95;107881;1289;21957;-68
2023/09/01 00:46:07;;;;;;;9.50;6.30;;;;;;;27.53;51.60;100090.55;107819;1289;21992;-58
2023/09/01 00:48:32;;;;;;;7.90;5.80;;;;;;;27.49;51.91;100093.26;107826;1279;22002;-68
2023/09/01 00:50:58;;;;;;;8.60;5.80;;;;;;;27.41;52.09;100095.90;107973;1288;21999;-58
2023/09/01 00:53:25;;;;;;;8.00;6.50;;;;;;;27.33;52.01;100093.73;107760;1283;22457;-67
2023/09/01 00:55:50;;;;;;;9.40;6.40;;;;;;;27.27;52.25;100094.77;107841;1286;23671;-59
2023/09/01 00:58:16;;;;;;;8.50;5.70;;;;;;;27.23;52.42;100096.46;107827;1288;21991;-60
2023/09/01 01:00:42;;;;;;;8.00;5.60;;;;;;;27.18;52.47;100095.55;108023;1279;22043;-60
2023/09/01 01:03:08;;;;;;;10.70;5.80;;;;;;;27.15;52.59;100097.22;108064;1280;21975;-58
2023/09/01 01:05:46;;;;;;;10.30;5.80;;;;;;;27.12;52.57;100093.54;108043;1283;21981;-68
2023/09/01 01:08:22;;;;;;;9.80;5.70;;;;;;;27.09;52.63;100087.58;108047;1283;21989;-67
2023/09/01 01:11:06;;;;;;;10.80;6.60;;;;;;;27.06;52.85;100087.84;107969;1286;23088;-59
2023/09/01 01:13:35;;;;;;;8.80;5.10;;;;;;;27.02;52.83;100092.98;108033;1283;21977;-67
2023/09/01 01:16:00;;;;;;;7.90;5.60;;;;;;;26.99;52.96;100094.64;108048;1288;21999;-58
2023/09/01 01:18:26;;;;;;;8.20;5.80;;;;;;;26.97;53.23;100095.19;107937;1289;21990;-58
2023/09/01 01:21:00;;;;;;;9.20;6.10;;;;;;;26.93;53.56;100102.77;107836;1289;22653;-68
2023/09/01 01:23:26;;;;;;;10.20;6.00;;;;;;;26.86;53.60;100097.43;107828;1289;23651;-67
2023/09/01 01:25:52;;;;;;;9.20;5.80;;;;;;;26.78;53.92;100091.89;107888;1283;21981;-68
2023/09/01 01:28:22;;;;;;;9.30;5.80;;;;;;;26.73;53.77;100086.59;108032;1289;21995;-58
2023/09/01 01:30:48;;;;;;;8.60;5.70;;;;;;;26.69;53.94;100082.45;107941;1288;21992;-67
2023/09/01 01:33:56;;;;;;;9.70;5.90;;;;;;;26.65;53.90;100079.36;107787;1284;21997;-68
2023/09/01 01:36:33;;;;;;;7.80;5.40;;;;;;;26.63;54.21;100086.92;107449;1293;22013;-59
2023/09/01 01:39:24;;;;;;;8.20;5.50;;;;;;;26.62;54.43;100083.40;107888;1286;22053;-67
2023/09/01 01:42:05;;;;;;;9.90;5.80;;;;;;;26.61;55.18;100078.48;107815;1283;21995;-68
2023/09/01 01:44:34;;;;;;;12.10;6.00;;;;;;;26.58;55.03;100082.27;107817;1289;21991;-68
2023/09/01 01:46:59;;;;;;;9.80;5.50;;;;;;;26.55;55.06;100077.66;107772;1288;22088;-68
2023/09/01 01:49:27;;;;;;;10.70;5.30;;;;;;;26.53;55.17;100077.44;107728;1282;22012;-58
2023/09/01 01:51:53;;;;;;;8.60;6.00;;;;;;;26.54;55.23;100076.86;107829;1289;22000;-58
2023/09/01 01:54:18;;;;;;;7.60;5.50;;;;;;;26.54;55.20;100075.25;107809;1286;21990;-67
2023/09/01 01:56:44;;;;;;;11.10;6.50;;;;;;;26.53;55.04;100076.19;107819;1289;21988;-59
2023/09/01 01:59:09;;;;;;;7.20;5.30;;;;;;;26.53;54.95;100082.69;107940;1282;21986;-58
2023/09/01 02:01:35;;;;;;;8.10;5.70;;;;;;;26.53;55.17;100088.46;107968;1288;21985;-58
2023/09/01 02:04:00;;;;;;;7.70;5.30;;;;;;;26.51;55.02;100092.21;107997;1283;22031;-68
2023/09/01 02:06:26;;;;;;;12.30;5.70;;;;;;;26.50;54.93;100103.96;107999;1288;21996;-69
2023/09/01 02:08:52;;;;;;;8.50;5.60;;;;;;;26.50;55.04;100107.80;107955;1289;21990;-60
2023/09/01 02:11:17;;;;;;;8.80;5.30;;;;;;;26.48;55.11;100114.30;107926;1280;21991;-63
2023/09/01 02:13:44;;;;;;;10.90;5.20;;;;;;;26.46;54.96;100123.20;107916;1279;21992;-60
2023/09/01 02:16:09;;;;;;;8.50;5.50;;;;;;;26.46;54.94;100125.95;107873;1289;21984;-60
2023/09/01 02:18:35;;;;;;;9.60;5.50;;;;;;;26.44;54.95;100129.31;107988;1288;22861;-59
2023/09/01 02:21:00;;;;;;;8.40;5.30;;;;;;;26.41;54.77;100130.99;108007;1288;22458;-59
2023/09/01 02:23:26;;;;;;;9.10;5.80;;;;;;;26.40;54.82;100132.00;107970;1288;21994;-60
2023/09/01 02:25:51;;;;;;;8.00;5.00;;;;;;;26.38;54.65;100129.83;108086;1280;21999;-69
2023/09/01 02:28:17;;;;;;;14.80;6.10;;;;;;;26.34;54.45;100129.41;107881;1280;21999;-68
2023/09/01 02:30:43;;;;;;;7.60;5.50;;;;;;;26.33;54.60;100130.25;108003;1288;23682;-61
2023/09/01 02:33:08;;;;;;;10.60;5.70;;;;;;;26.32;54.58;100128.13;107970;1284;209135;-69
2023/09/01 02:35:42;;;;;;;8.90;5.30;;;;;;;26.30;54.59;100131.77;108056;1288;22002;-60
2023/09/01 02:38:07;;;;;;;9.50;5.60;;;;;;;26.25;54.41;100138.07;107989;1288;21948;-60
2023/09/01 02:40:33;;;;;;;7.50;5.60;;;;;;;26.21;54.43;100142.86;107811;1283;22300;-61
2023/09/01 02:42:58;;;;;;;6.50;4.70;;;;;;;26.17;54.42;100146.48;108006;1283;21990;-68
2023/09/01 02:45:24;;;;;;;9.30;5.00;;;;;;;26.11;54.48;100153.72;108086;1284;21999;-68
2023/09/01 02:47:50;;;;;;;9.70;5.30;;;;;;;26.06;54.44;100167.21;108049;1287;21998;-59
2023/09/01 02:50:16;;;;;;;7.20;5.20;;;;;;;25.98;54.51;100173.27;108025;1281;21989;-60
2023/09/01 02:52:42;;;;;;;8.40;5.10;;;;;;;25.91;54.59;100171.73;107993;1283;21985;-58
2023/09/01 02:55:08;;;;;;;8.30;5.60;;;;;;;25.84;55.07;100176.90;108063;1288;21994;-69
2023/09/01 02:57:35;;;;;;;11.90;6.10;;;;;;;25.77;55.40;100176.93;107927;1283;23603;-59
2023/09/01 03:00:00;;;;;;;9.10;6.40;;;;;;;25.71;55.59;100181.36;108031;1288;22156;-60
2023/09/01 03:02:26;;;;;;;9.70;5.80;;;;;;;25.67;55.73;100186.19;107953;1288;21989;-70
2023/09/01 03:04:56;;;;;;;8.70;5.70;;;;;;;25.63;55.81;100190.44;107992;1288;21995;-70
2023/09/01 03:07:23;;;;;;;;;;;;;;;25.60;56.03;100186.36;107995;1288;23645;-70
2023/09/01 03:09:49;;;;;;;7.70;5.20;;;;;;;25.61;56.12;100184.45;108007;1288;22845;-70
2023/09/01 03:12:15;;;;;;;12.50;6.60;;;;;;;25.63;56.36;100186.27;108076;1288;21992;-59
2023/09/01 03:14:41;;;;;;;10.30;5.50;;;;;;;25.68;56.43;100186.98;107978;1284;22006;-59
2023/09/01 03:17:07;;;;;;;13.70;5.90;;;;;;;25.72;56.19;100186.16;107999;1287;21995;-59
2023/09/01 03:19:33;;;;;;;9.40;5.80;;;;;;;25.74;56.34;100187.76;108147;1288;22117;-67
2023/09/01 03:21:58;;;;;;;12.40;6.60;;;;;;;25.76;56.27;100185.14;107865;1277;22036;-72
2023/09/01 03:24:24;;;;;;;12.00;6.30;;;;;;;25.75;56.20;100186.09;107774;1289;22015;-71
2023/09/01 03:26:49;;;;;;;10.90;6.20;;;;;;;25.70;56.04;100185.19;107748;1283;22221;-70
2023/09/01 03:29:15;;;;;;;19.10;7.10;;;;;;;25.67;56.29;100190.10;107742;1284;22026;-70
2023/09/01 03:31:41;;;;;;;8.80;6.10;;;;;;;25.66;56.29;100188.92;109115;1288;21832;-71
2023/09/01 03:34:07;;;;;;;13.90;6.50;;;;;;;25.65;56.26;100192.38;109063;1283;23257;-68
2023/09/01 03:36:33;;;;;;;14.50;6.80;;;;;;;25.63;56.37;100189.35;108007;1287;23060;-66
2023/09/01 03:38:59;;;;;;;10.40;7.30;;;;;;;25.63;56.70;100187.88;107994;1288;22001;-56
2023/09/01 03:41:25;;;;;;;17.90;7.00;;;;;;;25.66;57.00;100189.46;107856;1289;21990;-67
2023/09/01 03:43:50;;;;;;;21.20;7.70;;;;;;;25.68;56.98;100193.29;107916;1289;21994;-57
2023/09/01 03:46:16;;;;;;;17.40;7.50;;;;;;;25.69;57.08;100195.86;107827;1289;21990;-67
2023/09/01 03:48:41;;;;;;;14.10;7.50;;;;;;;25.73;57.24;100198.68;107804;1288;21992;-67
2023/09/01 03:51:09;;;;;;;16.30;8.50;;;;;;;25.75;57.51;100202.23;107938;1287;21989;-67
2023/09/01 03:53:36;;;;;;;14.90;7.40;;;;;;;25.78;57.55;100207.79;107849;1289;22124;-60
2023/09/01 03:56:06;;;;;;;18.30;8.20;;;;;;;25.82;57.66;100211.23;107827;1283;22106;-67
2023/09/01 03:58:32;;;;;;;;;;;;;;;25.86;57.66;100217.20;107859;1285;21977;-67
2023/09/01 04:00:57;;;;;;;17.10;7.60;;;;;;;25.89;57.83;100219.14;108027;1283;21992;-58
2023/09/01 04:03:23;;;;;;;19.90;7.80;;;;;;;25.92;57.86;100218.35;108010;1287;21992;-59
2023/09/01 04:05:49;;;;;;;18.30;7.50;;;;;;;25.95;58.02;100217.34;108031;1286;21976;-60
2023/09/01 04:08:15;;;;;;;16.40;8.00;;;;;;;26.02;57.97;100221.36;108036;1285;21994;-59
2023/09/01 04:10:40;;;;;;;16.60;8.10;;;;;;;26.08;57.82;100224.95;107956;1289;22004;-60
2023/09/01 04:13:06;;;;;;;19.80;8.40;;;;;;;26.13;57.69;100223.48;107834;1289;21997;-59
2023/09/01 04:15:31;;;;;;;14.30;7.30;;;;;;;26.19;57.81;100223.79;107888;1289;21993;-69
2023/09/01 04:17:57;;;;;;;13.90;7.40;;;;;;;26.25;57.94;100225.11;107879;1288;21992;-69
2023/09/01 04:20:23;;;;;;;16.70;8.80;;;;;;;26.32;57.79;100229.77;108008;1288;21995;-69
2023/09/01 04:22:48;;;;;;;11.60;7.20;;;;;;;26.37;57.72;100225.35;108018;1284;22008;-59
2023/09/01 04:25:14;;;;;;;22.70;8.20;;;;;;;26.42;57.83;100226.42;108015;1285;21995;-59
2023/09/01 04:27:39;;;;;;;10.10;7.50;;;;;;;26.48;58.15;100231.39;108008;1288;21990;-59
2023/09/01 04:30:06;;;;;;;9.90;7.20;;;;;;;26.51;58.47;100228.21;108083;1286;22459;-70
2023/09/01 04:32:31;;;;;;;12.80;7.60;;;;;;;26.53;58.79;100232.88;107975;1281;23059;-69
2023/09/01 04:34:57;;;;;;;13.50;7.70;;;;;;;26.55;58.88;100236.84;108000;1288;21991;-69
2023/09/01 04:37:22;;;;;;;13.90;8.00;;;;;;;26.60;59.49;100240.23;107977;1286;21992;-59
2023/09/01 04:39:48;;;;;;;15.30;8.40;;;;;;;26.64;59.82;100236.31;107842;1289;22105;-60
2023/09/01 04:42:14;;;;;;;15.30;7.80;;;;;;;26.69;60.16;100238.07;107843;1289;22048;-69
2023/09/01 04:44:39;;;;;;;15.90;8.10;;;;;;;26.75;59.75;100238.51;107866;1288;22468;-64
2023/09/01 04:47:05;;;;;;;15.50;8.00;;;;;;;26.82;59.97;100241.36;107941;1288;22004;-69
2023/09/01 04:49:30;;;;;;;15.60;8.30;;;;;;;26.89;60.16;100244.25;107840;1288;22023;-70
2023/09/01 04:51:56;;;;;;;14.30;9.30;;;;;;;26.95;60.49;100249.15;107722;1288;22250;-68
2023/09/01 04:54:21;;;;;;;13.40;8.70;;;;;;;27.00;60.88;100248.34;108018;1288;22029;-60
2023/09/01 04:56:48;;;;;;;12.10;8.10;;;;;;;27.07;60.78;100250.65;107995;1288;22000;-69
2023/09/01 04:59:14;;;;;;;13.40;7.70;;;;;;;27.14;60.63;100253.33;108006;1287;23244;-70
2023/09/01 05:01:40;;;;;;;11.70;8.90;;;;;;;27.20;60.84;100252.77;108026;1288;22004;-59
2023/09/01 05:04:07;;;;;;;15.10;8.70;;;;;;;27.27;60.29;100254.51;108073;1288;21994;-60
2023/09/01 05:06:33;;;;;;;13.40;8.10;;;;;;;27.37;60.05;100259.13;108036;1288;21987;-59
2023/09/01 05:08:59;;;;;;;10.50;7.50;;;;;;;27.45;60.05;100257.34;107844;1287;22232;-70
2023/09/01 05:11:24;;;;;;;13.30;7.60;;;;;;;27.52;59.66;100263.06;107999;1288;23647;-68
2023/09/01 05:13:50;;;;;;;11.60;7.80;;;;;;;27.59;59.55;100263.02;108004;1284;23732;-59
2023/09/01 05:16:15;;;;;;;10.20;8.10;;;;;;;27.67;59.72;100262.73;107922;1289;22305;-59
2023/09/01 05:18:42;;;;;;;10.60;7.40;;;;;;;27.74;59.37;100261.06;107825;1289;22006;-60
2023/09/01 05:21:07;;;;;;;10.70;6.90;;;;;;;27.82;59.33;100260.53;107843;1286;21988;-59
2023/09/01 05:23:34;;;;;;;10.00;7.40;;;;;;;27.91;59.21;100258.14;107848;1289;21992;-70
2023/09/01 05:26:00;;;;;;;11.20;6.90;;;;;;;28.02;58.64;100262.42;107958;1289;21988;-70
2023/09/01 05:28:26;;;;;;;8.70;6.90;;;;;;;28.12;58.23;100264.41;107950;1286;21989;-69
2023/09/01 05:30:51;;;;;;;11.90;6.70;;;;;;;28.23;57.79;100267.84;108006;1288;22004;-60
2023/09/01 05:33:17;;;;;;;9.40;7.30;;;;;;;28.35;57.63;100264.97;108050;1288;21985;-69
2023/09/01 05:35:43;;;;;;;7.80;6.60;;;;;;;28.45;57.37;100264.37;107899;1287;22009;-59
2023/09/01 05:38:09;;;;;;;9.60;7.00;;;;;;;28.57;57.09;100267.48;107831;1288;21988;-68
2023/09/01 05:40:35;;;;;;;9.10;7.10;;;;;;;28.69;57.09;100276.38;107931;1289;21990;-61
2023/09/01 05:43:00;;;;;;;9.50;7.20;;;;;;;28.80;56.68;100277.04;107852;1284;21998;-63
2023/09/01 05:45:26;;;;;;;10.20;7.10;;;;;;;28.90;56.49;100277.70;107973;1284;21993;-68
2023/09/01 05:47:52;;;;;;;8.90;6.90;;;;;;;29.01;56.59;100276.73;107994;1288;21998;-60
2023/09/01 05:50:18;;;;;;;12.70;7.70;;;;;;;29.13;56.34;100280.52;107990;1288;22015;-67
2023/09/01 05:52:44;;;;;;;10.30;7.40;;;;;;;29.20;55.84;100282.39;108024;1288;21999;-69
2023/09/01 05:55:10;;;;;;;12.30;7.50;;;;;;;29.24;55.48;100281.98;108000;1286;21990;-69
2023/09/01 05:57:35;;;;;;;10.60;7.80;;;;;;;29.33;55.19;100281.24;108021;1288;21998;-69
2023/09/01 06:00:01;;;;;;;9.60;7.50;;;;;;;29.40;54.92;100283.45;108023;1288;21995;-59
2023/09/01 06:02:27;;;;;;;9.90;7.60;;;;;;;29.50;54.91;100286.89;108053;1288;21999;-60
2023/09/01 06:04:52;;;;;;;11.60;7.30;;;;;;;29.63;54.64;100286.20;108014;1289;21998;-69
2023/09/01 06:07:18;;;;;;;9.30;7.30;;;;;;;29.72;54.55;100285.90;107888;1289;21990;-69
2023/09/01 06:09:44;;;;;;;12.00;7.30;;;;;;;29.80;54.17;100288.80;107800;1289;24504;-70
2023/09/01 06:12:09;;;;;;;11.40;7.10;;;;;;;29.89;53.83;100293.94;107990;1289;24087;-61
2023/09/01 06:14:35;;;;;;;11.00;7.60;;;;;;;29.93;53.36;100295.89;107831;1289;22017;-70
2023/09/01 06:17:01;;;;;;;13.60;8.30;;;;;;;30.00;53.67;100301.75;107824;1289;21992;-70
2023/09/01 06:19:26;;;;;;;13.40;8.00;;;;;;;30.13;53.51;100302.85;107859;1288;21994;-70
2023/09/01 06:21:52;;;;;;;10.70;8.10;;;;;;;30.25;53.50;100300.07;108070;1286;22158;-60
2023/09/01 06:24:18;;;;;;;10.80;7.60;;;;;;;30.35;53.09;100300.39;108046;1288;21982;-69
2023/09/01 06:26:44;;;;;;;9.30;7.90;;;;;;;30.39;52.87;100299.95;108023;1288;21990;-73
2023/09/01 06:29:10;;;;;;;11.90;7.90;;;;;;;30.47;52.66;100306.58;108012;1288;22029;-70
2023/09/01 06:31:36;;;;;;;10.00;7.00;;;;;;;30.57;52.44;100305.47;107939;1288;21973;-69
2023/09/01 06:34:03;;;;;;;9.10;6.60;;;;;;;30.76;52.41;100301.36;107707;1287;22002;-60
2023/09/01 06:36:29;;;;;;;13.20;7.90;;;;;;;31.01;52.34;100303.92;108003;1286;23628;-60
2023/09/01 06:38:54;;;;;;;9.80;7.20;;;;;;;31.23;51.94;100304.27;107959;1289;22000;-61
2023/09/01 06:41:20;;;;;;;9.80;8.30;;;;;;;31.45;51.50;100300.02;107857;1283;22001;-73
2023/09/01 06:43:45;;;;;;;8.30;7.20;;;;;;;31.60;51.13;100301.42;107857;1283;21962;-61
2023/09/01 06:46:11;;;;;;;11.10;7.90;;;;;;;31.69;50.49;100305.96;107843;1289;21993;-70
2023/09/01 06:48:37;;;;;;;9.90;8.30;;;;;;;31.68;50.10;100304.26;107745;1283;21989;-71
2023/09/01 06:51:02;;;;;;;9.10;7.70;;;;;;;31.69;50.01;100308.29;107951;1288;22104;-71
2023/09/01 06:53:28;;;;;;;11.00;7.70;;;;;;;31.76;49.95;100308.36;107981;1283;21992;-70
2023/09/01 06:55:54;;;;;;;11.70;7.40;;;;;;;31.86;49.73;100305.86;107930;1288;22002;-70
2023/09/01 06:58:19;;;;;;;9.00;7.10;;;;;;;31.94;49.22;100303.95;107742;1286;21990;-70
2023/09/01 07:00:45;;;;;;;8.40;7.10;;;;;;;32.01;48.91;100301.98;107742;1289;21980;-68
2023/09/01 07:03:11;;;;;;;10.70;7.10;;;;;;;32.09;48.56;100306.35;107962;1288;23610;-71
2023/09/01 07:05:37;;;;;;;10.40;6.90;;;;;;;32.19;48.67;100308.41;107993;1287;23721;-70
2023/09/01 07:08:03;;;;;;;10.30;6.90;;;;;;;32.32;48.48;100306.90;108103;1289;21992;-71
2023/09/01 07:10:29;;;;;;;11.40;7.30;;;;;;;32.48;48.11;100309.62;108028;1287;21987;-69
2023/09/01 07:12:54;;;;;;;8.40;7.00;;;;;;;32.65;48.03;100308.88;107998;1288;21996;-60
2023/09/01 07:15:20;;;;;;;8.50;6.90;;;;;;;32.90;47.57;100305.45;108006;1286;21999;-60
2023/09/01 07:17:48;;;;;;;9.30;6.80;;;;;;;33.08;47.01;100309.41;107955;1289;22005;-69
2023/09/01 07:20:13;;;;;;;10.30;6.20;;;;;;;33.22;46.52;100310.07;107842;1283;23599;-61
2023/09/01 07:22:39;;;;;;;10.70;7.40;;;;;;;33.31;45.96;100306.67;107792;1289;21998;-70
2023/09/01 07:25:09;;;;;;;7.00;6.00;;;;;;;33.39;45.15;100308.98;107806;1289;21995;-61
2023/09/01 07:27:35;;;;;;;8.20;6.40;;;;;;;33.48;45.17;100311.61;107992;1288;21995;-71
2023/09/01 07:30:02;;;;;;;7.40;6.20;;;;;;;33.53;44.16;100312.13;107895;1283;22002;-61
2023/09/01 07:32:31;;;;;;;6.80;5.60;;;;;;;33.57;43.59;100310.91;107830;1284;22459;-70
2023/09/01 07:34:56;;;;;;;10.10;6.30;;;;;;;33.61;43.69;100313.04;107917;1289;22002;-70
2023/09/01 07:37:22;;;;;;;7.90;6.30;;;;;;;33.65;42.20;100312.18;108017;1288;21990;-61
2023/09/01 07:39:47;;;;;;;7.70;6.00;;;;;;;33.70;42.50;100311.36;108014;1284;22004;-70
2023/09/01 07:42:14;;;;;;;6.80;6.10;;;;;;;33.78;42.89;100313.70;107995;1283;22761;-60
2023/09/01 07:44:39;;;;;;;8.30;5.60;;;;;;;33.86;42.60;100319.39;108020;1288;21979;-64
2023/09/01 07:47:05;;;;;;;9.20;7.00;;;;;;;33.88;42.18;100323.14;108066;1288;21976;-69
2023/09/01 07:49:30;;;;;;;7.50;6.10;;;;;;;33.89;41.84;100325.20;107816;1289;21997;-70
2023/09/01 07:51:56;;;;;;;8.70;6.10;;;;;;;33.95;42.34;100327.73;107820;1289;21997;-60
2023/09/01 07:54:22;;;;;;;9.10;6.50;;;;;;;34.05;41.70;100327.88;107828;1289;24334;-72
2023/09/01 07:56:47;;;;;;;9.20;6.10;;;;;;;34.10;41.64;100331.64;107755;1288;23626;-72
2023/09/01 07:59:13;;;;;;;6.80;6.10;;;;;;;34.16;42.18;100328.42;108002;1288;23624;-60
2023/09/01 08:01:38;;;;;;;7.40;5.90;;;;;;;34.29;41.77;100326.98;108057;1284;22081;-71
2023/09/01 08:04:05;;;;;;;7.80;6.40;;;;;;;34.38;40.24;100328.49;108003;1286;22001;-70
2023/09/01 08:06:31;;;;;;;9.70;6.50;;;;;;;34.48;41.01;100334.20;107867;1288;23638;-60
2023/09/01 08:08:57;;;;;;;7.60;6.60;;;;;;;34.56;39.94;100332.84;107970;1288;22013;-71
2023/09/01 08:11:22;;;;;;;7.70;6.50;;;;;;;34.52;39.26;100341.30;108020;1288;21994;-69
2023/09/01 08:13:48;;;;;;;7.00;6.30;;;;;;;34.56;40.00;100339.54;107980;1288;21990;-69
2023/09/01 08:16:16;;;;;;;7.70;6.30;;;;;;;34.59;39.50;100335.98;107969;1283;23637;-70
2023/09/01 08:18:42;;;;;;;12.00;6.50;;;;;;;34.64;39.77;100332.27;107998;1286;22029;-60
2023/09/01 08:21:07;;;;;;;7.80;6.60;;;;;;;34.71;39.58;100333.14;107966;1288;23249;-60
2023/09/01 08:23:33;;;;;;;7.80;6.40;;;;;;;34.69;39.31;100337.57;108030;1283;21992;-60
2023/09/01 08:26:04;;;;;;;8.50;7.00;;;;;;;34.75;39.23;100337.03;108046;1288;21984;-60
2023/09/01 08:28:31;;;;;;;8.30;6.70;;;;;;;34.87;39.17;100336.17;107939;1287;23075;-60
2023/09/01 08:31:06;;;;;;;11.50;6.90;;;;;;;35.02;39.25;100333.52;108051;1283;21992;-71
2023/09/01 08:33:32;;;;;;;11.90;6.70;;;;;;;35.15;38.57;100331.52;107972;1288;23812;-60
2023/09/01 08:36:03;;;;;;;8.80;7.20;;;;;;;35.27;38.19;100330.98;108064;1280;22027;-61
2023/09/01 08:38:29;;;;;;;9.20;6.90;;;;;;;35.36;37.65;100328.24;108054;1288;21969;-60
2023/09/01 08:41:01;;;;;;;7.60;6.30;;;;;;;35.42;37.33;100330.11;108031;1288;21992;-70
2023/09/01 08:43:27;;;;;;;9.80;6.60;;;;;;;35.48;37.44;100331.88;108075;1279;21994;-61
2023/09/01 08:45:52;;;;;;;9.90;6.50;;;;;;;35.55;37.07;100330.23;107643;1286;21992;-69
2023/09/01 08:48:18;;;;;;;8.00;6.20;;;;;;;35.67;36.66;100331.95;107630;1289;21994;-60
2023/09/01 08:50:43;;;;;;;8.20;6.40;;;;;;;35.87;36.66;100333.02;107834;1289;22007;-61
2023/09/01 08:53:09;;;;;;;7.40;6.00;;;;;;;36.05;36.89;100334.45;107863;1288;23700;-60
2023/09/01 08:55:37;;;;;;;7.70;6.00;;;;;;;36.22;36.41;100337.10;107955;1288;22002;-60
2023/09/01 08:58:03;;;;;;;7.40;5.50;;;;;;;36.44;36.33;100338.34;108020;1288;22002;-60
2023/09/01 09:00:29;;;;;;;7.30;5.60;;;;;;;36.58;35.65;100338.33;108024;1288;21996;-61
2023/09/01 09:02:55;;;;;;;7.50;5.60;;;;;;;36.60;35.35;100338.58;108078;1287;21997;-68
2023/09/01 09:05:21;;;;;;;8.30;5.20;;;;;;;36.60;35.55;100339.51;107774;1288;21985;-59
2023/09/01 09:08:00;;;;;;;6.70;5.50;;;;;;;36.57;34.09;100336.17;107953;1283;21991;-59
2023/09/01 09:10:36;;;;;;;8.20;5.20;;;;;;;36.54;33.48;100341.57;107976;1286;21989;-60
2023/09/01 09:13:04;;;;;;;6.90;5.50;;;;;;;36.62;34.58;100339.39;107819;1280;22243;-59
2023/09/01 09:15:31;;;;;;;7.80;5.40;;;;;;;36.71;34.25;100338.94;108044;1288;21992;-68
2023/09/01 09:17:56;;;;;;;5.70;4.90;;;;;;;36.68;34.20;100341.77;108029;1283;21996;-69
2023/09/01 09:20:22;;;;;;;6.10;5.10;;;;;;;36.72;34.08;100341.41;107703;1279;22140;-59
2023/09/01 09:23:01;;;;;;;10.90;5.40;;;;;;;36.82;34.34;100341.55;107778;1286;22009;-59
2023/09/01 09:25:30;;;;;;;7.70;5.20;;;;;;;37.00;34.05;100342.59;107858;1280;21965;-68
2023/09/01 09:27:58;;;;;;;5.70;4.60;;;;;;;37.13;33.93;100335.89;107847;1289;21994;-67
2023/09/01 09:30:27;;;;;;;6.30;5.00;;;;;;;37.29;33.61;100337.50;107848;1288;24273;-68
2023/09/01 09:33:05;;;;;;;4.60;4.00;;;;;;;37.50;33.73;100340.88;108056;1277;22743;-68
2023/09/01 09:35:34;;;;;;;6.60;4.60;;;;;;;37.74;33.63;100347.54;108036;1280;22085;-60
2023/09/01 09:38:00;;;;;;;5.10;4.20;;;;;;;37.94;33.74;100344.04;108001;1288;22439;-68
2023/09/01 09:40:26;;;;;;;5.20;4.70;;;;;;;38.09;33.89;100344.94;108051;1287;21988;-67
2023/09/01 09:42:52;;;;;;;5.60;4.80;;;;;;;38.20;32.50;100345.14;108128;1283;22017;-68
2023/09/01 09:45:21;;;;;;;6.30;4.00;;;;;;;38.08;30.71;100349.25;107940;1288;23823;-69
2023/09/01 09:47:50;;;;;;;6.60;4.20;;;;;;;37.99;30.90;100350.37;108020;1287;21969;-61
2023/09/01 09:50:18;;;;;;;7.80;4.20;;;;;;;38.04;31.27;100356.65;108001;1288;23636;-60
2023/09/01 09:52:47;;;;;;;8.80;4.80;;;;;;;38.11;31.84;100354.93;108052;1288;21994;-61
2023/09/01 09:55:13;;;;;;;4.90;3.90;;;;;;;38.18;31.54;100357.67;107993;1281;22029;-61
2023/09/01 09:57:39;;;;;;;6.30;4.40;;;;;;;38.22;31.37;100359.17;107767;1288;21990;-70
2023/09/01 10:00:10;;;;;;;5.90;3.80;;;;;;;38.20;29.82;100357.69;107925;1288;23852;-70
2023/09/01 10:02:48;;;;;;;5.30;4.20;;;;;;;38.24;30.44;100356.82;107961;1288;22002;-69
2023/09/01 10:05:15;;;;;;;6.80;4.00;;;;;;;38.33;30.26;100359.45;108106;1286;21991;-62
2023/09/01 10:07:41;;;;;;;6.30;4.40;;;;;;;38.37;30.42;100358.86;108001;1288;21957;-70
2023/09/01 10:10:07;;;;;;;6.80;4.60;;;;;;;38.47;30.78;100356.21;107839;1289;21999;-62
2023/09/01 10:12:33;;;;;;;5.90;4.10;;;;;;;38.65;31.22;100357.94;107891;1289;22001;-61
2023/09/01 10:14:59;;;;;;;7.30;4.30;;;;;;;38.84;31.52;100355.98;107785;1286;22006;-68
2023/09/01 10:17:25;;;;;;;6.10;4.70;;;;;;;39.03;31.29;100351.92;107770;1288;21999;-62
2023/09/01 10:19:52;;;;;;;5.80;3.90;;;;;;;39.17;29.23;100352.33;108068;1286;22002;-62
2023/09/01 10:22:18;;;;;;;5.10;3.90;;;;;;;39.15;29.01;100350.51;108048;1285;22744;-70
2023/09/01 10:25:10;;;;;;;5.50;4.40;;;;;;;39.18;29.43;100350.17;107824;1287;21991;-69
2023/09/01 10:27:36;;;;;;;8.00;4.30;;;;;;;39.30;30.23;100351.13;107887;1289;22045;-62
2023/09/01 10:30:22;;;;;;;6.90;4.60;;;;;;;39.31;30.18;100354.80;107919;1289;22460;-67
2023/09/01 10:32:48;;;;;;;5.40;4.20;;;;;;;39.32;30.35;100352.91;107882;1286;21995;-67
2023/09/01 10:35:13;;;;;;;6.20;4.30;;;;;;;39.25;30.34;100355.14;107617;1289;21993;-59
2023/09/01 10:37:39;;;;;;;6.70;4.40;;;;;;;39.15;30.50;100355.92;107808;1288;21995;-59
2023/09/01 10:40:44;;;;;;;6.80;4.20;;;;;;;39.12;30.53;100350.04;107883;1282;22004;-61
2023/09/01 10:43:11;;;;;;;5.90;3.70;;;;;;;38.98;29.57;100344.63;107929;1286;21987;-60
2023/09/01 10:45:38;;;;;;;6.30;4.40;;;;;;;38.92;30.00;100351.29;107965;1286;21993;-60
2023/09/01 10:48:04;;;;;;;5.50;4.00;;;;;;;38.93;30.20;100348.04;108020;1279;21995;-68
2023/09/01 10:50:34;;;;;;;5.00;3.90;;;;;;;38.90;29.75;100341.17;107763;1286;22457;-60
2023/09/01 10:53:31;;;;;;;5.90;3.90;;;;;;;39.03;30.23;100346.80;107965;1288;24882;-62
2023/09/01 10:56:07;;;;;;;5.00;3.60;;;;;;;39.18;29.72;100349.33;107971;1288;22004;-63
2023/09/01 10:58:49;;;;;;;5.00;4.00;;;;;;;39.24;29.45;100349.64;107936;1288;22004;-61
2023/09/01 11:01:28;;;;;;;4.80;4.00;;;;;;;39.30;29.38;100349.83;108007;1288;21999;-60
2023/09/01 11:03:54;;;;;;;4.10;3.40;;;;;;;39.33;29.35;100347.97;107994;1288;23625;-61
2023/09/01 11:06:23;;;;;;;4.20;3.50;;;;;;;39.41;29.18;100345.02;107994;1288;23136;-62
2023/09/01 11:09:01;;;;;;;4.90;4.20;;;;;;;39.51;29.42;100346.93;108015;1277;22032;-60
2023/09/01 11:11:27;;;;;;;4.30;3.50;;;;;;;39.54;29.47;100342.18;107953;1288;22004;-61
2023/09/01 11:13:54;;;;;;;3.90;3.40;;;;;;;39.49;28.73;100345.96;108067;1276;21992;-68
2023/09/01 11:16:20;;;;;;;37.50;6.80;;;;;;;39.41;28.63;100337.78;108068;1286;23615;-61